sensor_id;sensor_type;location;lat;lon;timestamp;P1;durP1;ratioP1;P2;durP2;ratioP2
31347;SDS011;21711;49.708;18.568;2023-10-09T00:02:08;8.63;;;1.38;;
31347;SDS011;21711;49.708;18.568;2023-10-09T00:04:38;5.15;;;1.85;;
31347;SDS011;21711;49.708;18.568;2023-10-09T00:07:09;2.47;;;1.05;;
31347;SDS011;21711;49.708;18.568;2023-10-09T00:09:38;4.05;;;1.60;;
31347;SDS011;21711;49.708;18.568;2023-10-09T00:12:15;4.45;;;1.40;;
31347;SDS011;21711;49.708;18.568;2023-10-09T00:14:49;2.88;;;1.08;;
31347;SDS011;21711;49.708;18.568;2023-10-09T00:17:22;5.18;;;1.50;;
31347;SDS011;21711;49.708;18.568;2023-10-09T00:19:51;2.42;;;1.13;;
31347;SDS011;21711;49.708;18.568;2023-10-09T00:22:19;5.63;;;1.48;;
31347;SDS011;21711;49.708;18.568;2023-10-09T00:24:53;3.45;;;1.30;;
31347;SDS011;21711;49.708;18.568;2023-10-09T00:30:12;3.60;;;1.55;;
31347;SDS011;21711;49.708;18.568;2023-10-09T00:32:45;3.97;;;1.30;;
31347;SDS011;21711;49.708;18.568;2023-10-09T00:35:28;4.07;;;1.42;;
31347;SDS011;21711;49.708;18.568;2023-10-09T00:38:11;2.83;;;1.08;;
31347;SDS011;21711;49.708;18.568;2023-10-09T00:40:48;3.63;;;1.25;;
31347;SDS011;21711;49.708;18.568;2023-10-09T00:43:30;2.70;;;1.27;;
31347;SDS011;21711;49.708;18.568;2023-10-09T00:45:59;4.70;;;1.50;;
31347;SDS011;21711;49.708;18.568;2023-10-09T00:48:31;7.55;;;1.30;;
31347;SDS011;21711;49.708;18.568;2023-10-09T00:51:04;5.40;;;1.80;;
31347;SDS011;21711;49.708;18.568;2023-10-09T00:53:43;3.55;;;1.13;;
31347;SDS011;21711;49.708;18.568;2023-10-09T00:56:33;5.53;;;1.48;;
31347;SDS011;21711;49.708;18.568;2023-10-09T00:59:06;2.83;;;1.05;;
31347;SDS011;21711;49.708;18.568;2023-10-09T01:01:38;5.18;;;1.52;;
31347;SDS011;21711;49.708;18.568;2023-10-09T01:04:07;3.30;;;1.20;;
31347;SDS011;21711;49.708;18.568;2023-10-09T01:06:40;6.50;;;1.70;;
31347;SDS011;21711;49.708;18.568;2023-10-09T01:09:14;3.13;;;1.20;;
31347;SDS011;21711;49.708;18.568;2023-10-09T01:11:46;3.15;;;1.45;;
31347;SDS011;21711;49.708;18.568;2023-10-09T01:14:34;3.72;;;1.10;;
31347;SDS011;21711;49.708;18.568;2023-10-09T01:17:04;3.92;;;1.48;;
31347;SDS011;21711;49.708;18.568;2023-10-09T01:19:35;2.80;;;1.33;;
31347;SDS011;21711;49.708;18.568;2023-10-09T01:22:03;3.40;;;1.20;;
31347;SDS011;21711;49.708;18.568;2023-10-09T01:24:40;4.15;;;1.40;;
31347;SDS011;21711;49.708;18.568;2023-10-09T01:27:09;5.32;;;1.15;;
31347;SDS011;21711;49.708;18.568;2023-10-09T01:29:43;3.42;;;1.67;;
31347;SDS011;21711;49.708;18.568;2023-10-09T01:32:13;5.57;;;2.22;;
31347;SDS011;21711;49.708;18.568;2023-10-09T01:34:44;4.88;;;1.42;;
31347;SDS011;21711;49.708;18.568;2023-10-09T01:37:16;3.70;;;1.10;;
31347;SDS011;21711;49.708;18.568;2023-10-09T01:39:49;3.72;;;1.50;;
31347;SDS011;21711;49.708;18.568;2023-10-09T01:42:25;2.78;;;1.50;;
31347;SDS011;21711;49.708;18.568;2023-10-09T01:45:12;7.45;;;1.30;;
31347;SDS011;21711;49.708;18.568;2023-10-09T01:47:40;5.13;;;1.48;;
31347;SDS011;21711;49.708;18.568;2023-10-09T01:50:07;4.63;;;1.45;;
31347;SDS011;21711;49.708;18.568;2023-10-09T01:52:48;2.45;;;1.10;;
31347;SDS011;21711;49.708;18.568;2023-10-09T01:55:16;2.80;;;1.25;;
31347;SDS011;21711;49.708;18.568;2023-10-09T01:58:05;3.42;;;1.23;;
31347;SDS011;21711;49.708;18.568;2023-10-09T02:00:43;5.85;;;1.40;;
31347;SDS011;21711;49.708;18.568;2023-10-09T02:03:16;7.28;;;1.50;;
31347;SDS011;21711;49.708;18.568;2023-10-09T02:05:45;5.35;;;1.38;;
31347;SDS011;21711;49.708;18.568;2023-10-09T02:08:12;6.30;;;1.60;;
31347;SDS011;21711;49.708;18.568;2023-10-09T02:10:39;2.35;;;1.02;;
31347;SDS011;21711;49.708;18.568;2023-10-09T02:13:14;4.65;;;1.33;;
31347;SDS011;21711;49.708;18.568;2023-10-09T02:15:44;4.45;;;1.60;;
31347;SDS011;21711;49.708;18.568;2023-10-09T02:20:50;4.07;;;1.67;;
31347;SDS011;21711;49.708;18.568;2023-10-09T02:23:32;2.95;;;1.35;;
31347;SDS011;21711;49.708;18.568;2023-10-09T02:26:17;4.28;;;1.60;;
31347;SDS011;21711;49.708;18.568;2023-10-09T02:28:53;5.03;;;1.95;;
31347;SDS011;21711;49.708;18.568;2023-10-09T02:31:27;6.03;;;1.75;;
31347;SDS011;21711;49.708;18.568;2023-10-09T02:34:03;5.72;;;1.75;;
31347;SDS011;21711;49.708;18.568;2023-10-09T02:36:32;2.95;;;1.38;;
31347;SDS011;21711;49.708;18.568;2023-10-09T02:39:09;4.13;;;1.65;;
31347;SDS011;21711;49.708;18.568;2023-10-09T02:41:59;6.20;;;1.95;;
31347;SDS011;21711;49.708;18.568;2023-10-09T02:44:28;7.20;;;1.92;;
31347;SDS011;21711;49.708;18.568;2023-10-09T02:47:06;6.47;;;1.88;;
31347;SDS011;21711;49.708;18.568;2023-10-09T02:49:44;4.95;;;1.67;;
31347;SDS011;21711;49.708;18.568;2023-10-09T02:52:14;5.95;;;2.17;;
31347;SDS011;21711;49.708;18.568;2023-10-09T02:54:46;4.65;;;2.30;;
31347;SDS011;21711;49.708;18.568;2023-10-09T02:57:14;2.67;;;1.30;;
31347;SDS011;21711;49.708;18.568;2023-10-09T02:59:55;4.35;;;1.73;;
31347;SDS011;21711;49.708;18.568;2023-10-09T03:02:22;2.78;;;1.40;;
31347;SDS011;21711;49.708;18.568;2023-10-09T03:04:50;6.88;;;2.00;;
31347;SDS011;21711;49.708;18.568;2023-10-09T03:07:22;3.60;;;1.40;;
31347;SDS011;21711;49.708;18.568;2023-10-09T03:09:50;3.70;;;1.52;;
31347;SDS011;21711;49.708;18.568;2023-10-09T03:12:17;2.42;;;1.48;;
31347;SDS011;21711;49.708;18.568;2023-10-09T03:14:45;5.35;;;2.08;;
31347;SDS011;21711;49.708;18.568;2023-10-09T03:17:13;4.50;;;1.67;;
31347;SDS011;21711;49.708;18.568;2023-10-09T03:19:41;5.80;;;2.75;;
31347;SDS011;21711;49.708;18.568;2023-10-09T03:22:10;5.55;;;2.08;;
31347;SDS011;21711;49.708;18.568;2023-10-09T03:24:38;3.92;;;1.60;;
31347;SDS011;21711;49.708;18.568;2023-10-09T03:27:16;4.68;;;2.03;;
31347;SDS011;21711;49.708;18.568;2023-10-09T03:29:44;3.72;;;1.55;;
31347;SDS011;21711;49.708;18.568;2023-10-09T03:32:20;3.88;;;1.67;;
31347;SDS011;21711;49.708;18.568;2023-10-09T03:34:48;4.75;;;1.70;;
31347;SDS011;21711;49.708;18.568;2023-10-09T03:37:18;6.63;;;1.95;;
31347;SDS011;21711;49.708;18.568;2023-10-09T03:39:55;4.22;;;1.83;;
31347;SDS011;21711;49.708;18.568;2023-10-09T03:42:22;5.57;;;1.60;;
31347;SDS011;21711;49.708;18.568;2023-10-09T03:44:51;7.50;;;1.48;;
31347;SDS011;21711;49.708;18.568;2023-10-09T03:47:20;9.45;;;1.83;;
31347;SDS011;21711;49.708;18.568;2023-10-09T03:49:49;3.70;;;1.50;;
31347;SDS011;21711;49.708;18.568;2023-10-09T03:52:21;3.30;;;1.63;;
31347;SDS011;21711;49.708;18.568;2023-10-09T03:54:52;6.80;;;1.60;;
31347;SDS011;21711;49.708;18.568;2023-10-09T03:57:21;5.47;;;1.60;;
31347;SDS011;21711;49.708;18.568;2023-10-09T03:59:51;4.00;;;1.38;;
31347;SDS011;21711;49.708;18.568;2023-10-09T04:02:18;2.88;;;1.45;;
31347;SDS011;21711;49.708;18.568;2023-10-09T04:04:49;6.15;;;1.85;;
31347;SDS011;21711;49.708;18.568;2023-10-09T04:07:18;5.88;;;1.58;;
31347;SDS011;21711;49.708;18.568;2023-10-09T04:09:48;3.92;;;1.42;;
31347;SDS011;21711;49.708;18.568;2023-10-09T04:12:20;4.95;;;1.77;;
31347;SDS011;21711;49.708;18.568;2023-10-09T04:14:52;5.10;;;1.95;;
31347;SDS011;21711;49.708;18.568;2023-10-09T04:17:25;3.63;;;1.52;;
31347;SDS011;21711;49.708;18.568;2023-10-09T04:19:55;3.67;;;1.70;;
31347;SDS011;21711;49.708;18.568;2023-10-09T04:22:41;5.32;;;1.67;;
31347;SDS011;21711;49.708;18.568;2023-10-09T04:25:20;5.60;;;2.13;;
31347;SDS011;21711;49.708;18.568;2023-10-09T04:27:56;4.28;;;1.40;;
31347;SDS011;21711;49.708;18.568;2023-10-09T04:30:41;3.58;;;1.30;;
31347;SDS011;21711;49.708;18.568;2023-10-09T04:33:14;4.18;;;2.15;;
31347;SDS011;21711;49.708;18.568;2023-10-09T04:36:04;3.95;;;1.80;;
31347;SDS011;21711;49.708;18.568;2023-10-09T04:38:45;5.90;;;2.00;;
31347;SDS011;21711;49.708;18.568;2023-10-09T04:41:31;3.50;;;1.50;;
31347;SDS011;21711;49.708;18.568;2023-10-09T04:44:00;5.40;;;1.65;;
31347;SDS011;21711;49.708;18.568;2023-10-09T04:46:50;5.88;;;1.30;;
31347;SDS011;21711;49.708;18.568;2023-10-09T04:49:50;5.78;;;1.75;;
31347;SDS011;21711;49.708;18.568;2023-10-09T04:52:18;5.65;;;1.40;;
31347;SDS011;21711;49.708;18.568;2023-10-09T04:55:07;7.95;;;1.85;;
31347;SDS011;21711;49.708;18.568;2023-10-09T04:57:39;7.68;;;1.85;;
31347;SDS011;21711;49.708;18.568;2023-10-09T05:00:14;3.00;;;1.55;;
31347;SDS011;21711;49.708;18.568;2023-10-09T05:02:55;2.15;;;1.25;;
31347;SDS011;21711;49.708;18.568;2023-10-09T05:05:54;6.90;;;1.90;;
31347;SDS011;21711;49.708;18.568;2023-10-09T05:08:48;3.83;;;1.60;;
31347;SDS011;21711;49.708;18.568;2023-10-09T05:11:16;5.15;;;2.10;;
31347;SDS011;21711;49.708;18.568;2023-10-09T05:14:20;4.85;;;1.70;;
31347;SDS011;21711;49.708;18.568;2023-10-09T05:16:54;7.00;;;2.05;;
31347;SDS011;21711;49.708;18.568;2023-10-09T05:19:22;6.22;;;1.80;;
31347;SDS011;21711;49.708;18.568;2023-10-09T05:22:09;3.97;;;1.77;;
31347;SDS011;21711;49.708;18.568;2023-10-09T05:24:57;4.50;;;1.83;;
31347;SDS011;21711;49.708;18.568;2023-10-09T05:27:25;3.13;;;1.48;;
31347;SDS011;21711;49.708;18.568;2023-10-09T05:30:11;6.82;;;1.75;;
31347;SDS011;21711;49.708;18.568;2023-10-09T05:32:55;3.13;;;1.63;;
31347;SDS011;21711;49.708;18.568;2023-10-09T05:35:31;4.07;;;1.65;;
31347;SDS011;21711;49.708;18.568;2023-10-09T05:38:26;9.00;;;1.90;;
31347;SDS011;21711;49.708;18.568;2023-10-09T05:40:57;3.08;;;1.42;;
31347;SDS011;21711;49.708;18.568;2023-10-09T05:43:44;5.60;;;1.58;;
31347;SDS011;21711;49.708;18.568;2023-10-09T05:46:30;3.13;;;1.35;;
31347;SDS011;21711;49.708;18.568;2023-10-09T05:49:02;5.70;;;2.20;;
31347;SDS011;21711;49.708;18.568;2023-10-09T05:51:36;5.68;;;1.48;;
31347;SDS011;21711;49.708;18.568;2023-10-09T05:54:10;3.90;;;1.60;;
31347;SDS011;21711;49.708;18.568;2023-10-09T05:56:56;4.75;;;1.90;;
31347;SDS011;21711;49.708;18.568;2023-10-09T05:59:46;6.13;;;1.88;;
31347;SDS011;21711;49.708;18.568;2023-10-09T06:02:37;3.85;;;1.58;;
31347;SDS011;21711;49.708;18.568;2023-10-09T06:05:27;3.20;;;1.38;;
31347;SDS011;21711;49.708;18.568;2023-10-09T06:08:07;5.27;;;1.60;;
31347;SDS011;21711;49.708;18.568;2023-10-09T06:10:39;4.22;;;1.63;;
31347;SDS011;21711;49.708;18.568;2023-10-09T06:13:08;5.50;;;1.67;;
31347;SDS011;21711;49.708;18.568;2023-10-09T06:15:55;5.05;;;1.70;;
31347;SDS011;21711;49.708;18.568;2023-10-09T06:18:41;4.43;;;2.15;;
31347;SDS011;21711;49.708;18.568;2023-10-09T06:21:21;3.88;;;1.90;;
31347;SDS011;21711;49.708;18.568;2023-10-09T06:24:06;6.82;;;1.80;;
31347;SDS011;21711;49.708;18.568;2023-10-09T06:26:57;3.90;;;1.70;;
31347;SDS011;21711;49.708;18.568;2023-10-09T06:29:25;5.43;;;1.98;;
31347;SDS011;21711;49.708;18.568;2023-10-09T06:32:03;3.40;;;1.60;;
31347;SDS011;21711;49.708;18.568;2023-10-09T06:34:56;4.75;;;1.95;;
31347;SDS011;21711;49.708;18.568;2023-10-09T06:37:44;3.38;;;1.50;;
31347;SDS011;21711;49.708;18.568;2023-10-09T06:40:38;4.85;;;1.63;;
31347;SDS011;21711;49.708;18.568;2023-10-09T06:43:26;6.75;;;2.40;;
31347;SDS011;21711;49.708;18.568;2023-10-09T06:45:54;7.13;;;2.42;;
31347;SDS011;21711;49.708;18.568;2023-10-09T06:48:42;8.80;;;3.10;;
31347;SDS011;21711;49.708;18.568;2023-10-09T06:51:23;15.68;;;6.28;;
31347;SDS011;21711;49.708;18.568;2023-10-09T06:53:57;17.65;;;8.10;;
31347;SDS011;21711;49.708;18.568;2023-10-09T06:58:57;11.32;;;5.18;;
31347;SDS011;21711;49.708;18.568;2023-10-09T07:01:51;13.70;;;6.00;;
31347;SDS011;21711;49.708;18.568;2023-10-09T07:04:37;13.65;;;5.82;;
31347;SDS011;21711;49.708;18.568;2023-10-09T07:07:05;9.88;;;4.18;;
31347;SDS011;21711;49.708;18.568;2023-10-09T07:09:47;5.28;;;1.90;;
31347;SDS011;21711;49.708;18.568;2023-10-09T07:12:33;4.18;;;1.60;;
31347;SDS011;21711;49.708;18.568;2023-10-09T07:15:09;5.00;;;2.10;;
31347;SDS011;21711;49.708;18.568;2023-10-09T07:17:55;4.25;;;1.70;;
31347;SDS011;21711;49.708;18.568;2023-10-09T07:20:43;5.53;;;1.77;;
31347;SDS011;21711;49.708;18.568;2023-10-09T07:23:26;5.43;;;1.65;;
31347;SDS011;21711;49.708;18.568;2023-10-09T07:26:03;3.10;;;1.13;;
31347;SDS011;21711;49.708;18.568;2023-10-09T07:29:03;4.35;;;1.40;;
31347;SDS011;21711;49.708;18.568;2023-10-09T07:31:49;5.68;;;2.28;;
31347;SDS011;21711;49.708;18.568;2023-10-09T07:34:24;9.55;;;3.13;;
31347;SDS011;21711;49.708;18.568;2023-10-09T07:36:57;6.97;;;1.90;;
31347;SDS011;21711;49.708;18.568;2023-10-09T07:39:30;5.68;;;2.10;;
31347;SDS011;21711;49.708;18.568;2023-10-09T07:42:03;5.40;;;1.90;;
31347;SDS011;21711;49.708;18.568;2023-10-09T07:44:56;5.22;;;1.42;;
31347;SDS011;21711;49.708;18.568;2023-10-09T07:47:24;4.10;;;1.63;;
31347;SDS011;21711;49.708;18.568;2023-10-09T07:50:10;5.68;;;1.80;;
31347;SDS011;21711;49.708;18.568;2023-10-09T07:52:38;4.38;;;1.70;;
31347;SDS011;21711;49.708;18.568;2023-10-09T07:55:11;6.10;;;1.77;;
31347;SDS011;21711;49.708;18.568;2023-10-09T07:57:53;5.32;;;1.88;;
31347;SDS011;21711;49.708;18.568;2023-10-09T08:00:20;3.90;;;1.52;;
31347;SDS011;21711;49.708;18.568;2023-10-09T08:03:03;3.72;;;1.60;;
31347;SDS011;21711;49.708;18.568;2023-10-09T08:05:36;4.18;;;1.63;;
31347;SDS011;21711;49.708;18.568;2023-10-09T08:08:11;3.35;;;1.40;;
31347;SDS011;21711;49.708;18.568;2023-10-09T08:11:08;6.30;;;1.88;;
31347;SDS011;21711;49.708;18.568;2023-10-09T08:13:54;3.00;;;1.45;;
31347;SDS011;21711;49.708;18.568;2023-10-09T08:16:27;8.50;;;1.73;;
31347;SDS011;21711;49.708;18.568;2023-10-09T08:19:04;4.07;;;1.50;;
31347;SDS011;21711;49.708;18.568;2023-10-09T08:22:07;3.55;;;1.45;;
31347;SDS011;21711;49.708;18.568;2023-10-09T08:25:03;5.20;;;2.10;;
31347;SDS011;21711;49.708;18.568;2023-10-09T08:27:31;3.28;;;1.70;;
31347;SDS011;21711;49.708;18.568;2023-10-09T08:30:05;4.85;;;1.90;;
31347;SDS011;21711;49.708;18.568;2023-10-09T08:32:46;4.65;;;1.80;;
31347;SDS011;21711;49.708;18.568;2023-10-09T08:35:34;4.22;;;2.15;;
31347;SDS011;21711;49.708;18.568;2023-10-09T08:38:17;8.57;;;4.28;;
31347;SDS011;21711;49.708;18.568;2023-10-09T08:40:51;6.50;;;2.40;;
31347;SDS011;21711;49.708;18.568;2023-10-09T08:43:25;5.47;;;2.53;;
31347;SDS011;21711;49.708;18.568;2023-10-09T08:45:57;5.60;;;2.63;;
31347;SDS011;21711;49.708;18.568;2023-10-09T08:48:28;5.55;;;2.83;;
31347;SDS011;21711;49.708;18.568;2023-10-09T08:50:57;5.30;;;2.20;;
31347;SDS011;21711;49.708;18.568;2023-10-09T08:53:27;4.67;;;2.00;;
31347;SDS011;21711;49.708;18.568;2023-10-09T08:55:55;7.00;;;2.60;;
31347;SDS011;21711;49.708;18.568;2023-10-09T08:58:23;6.38;;;2.30;;
31347;SDS011;21711;49.708;18.568;2023-10-09T09:00:53;6.85;;;2.08;;
31347;SDS011;21711;49.708;18.568;2023-10-09T09:03:22;8.93;;;2.42;;
31347;SDS011;21711;49.708;18.568;2023-10-09T09:05:57;4.80;;;1.98;;
31347;SDS011;21711;49.708;18.568;2023-10-09T09:08:29;3.88;;;1.83;;
31347;SDS011;21711;49.708;18.568;2023-10-09T09:11:03;8.23;;;2.10;;
31347;SDS011;21711;49.708;18.568;2023-10-09T09:16:21;4.00;;;2.08;;
31347;SDS011;21711;49.708;18.568;2023-10-09T09:18:57;5.88;;;3.05;;
31347;SDS011;21711;49.708;18.568;2023-10-09T09:21:34;4.93;;;2.10;;
31347;SDS011;21711;49.708;18.568;2023-10-09T09:24:09;4.57;;;2.13;;
31347;SDS011;21711;49.708;18.568;2023-10-09T09:26:42;6.78;;;2.15;;
31347;SDS011;21711;49.708;18.568;2023-10-09T09:29:13;3.50;;;2.22;;
31347;SDS011;21711;49.708;18.568;2023-10-09T09:31:51;6.78;;;2.90;;
31347;SDS011;21711;49.708;18.568;2023-10-09T09:34:54;4.63;;;1.95;;
31347;SDS011;21711;49.708;18.568;2023-10-09T09:37:32;5.55;;;2.30;;
31347;SDS011;21711;49.708;18.568;2023-10-09T09:40:09;4.22;;;2.22;;
31347;SDS011;21711;49.708;18.568;2023-10-09T09:43:00;4.35;;;2.22;;
31347;SDS011;21711;49.708;18.568;2023-10-09T09:45:32;8.50;;;2.40;;
31347;SDS011;21711;49.708;18.568;2023-10-09T09:48:05;4.40;;;2.17;;
31347;SDS011;21711;49.708;18.568;2023-10-09T09:50:33;4.72;;;2.67;;
31347;SDS011;21711;49.708;18.568;2023-10-09T09:53:05;4.60;;;1.65;;
31347;SDS011;21711;49.708;18.568;2023-10-09T09:55:35;4.22;;;1.83;;
31347;SDS011;21711;49.708;18.568;2023-10-09T09:58:09;6.03;;;2.17;;
31347;SDS011;21711;49.708;18.568;2023-10-09T10:00:47;8.10;;;1.88;;
31347;SDS011;21711;49.708;18.568;2023-10-09T10:03:29;3.28;;;1.60;;
31347;SDS011;21711;49.708;18.568;2023-10-09T10:06:05;4.63;;;2.10;;
31347;SDS011;21711;49.708;18.568;2023-10-09T10:08:38;5.47;;;2.00;;
31347;SDS011;21711;49.708;18.568;2023-10-09T10:11:08;5.27;;;1.87;;
31347;SDS011;21711;49.708;18.568;2023-10-09T10:14:12;7.05;;;1.77;;
31347;SDS011;21711;49.708;18.568;2023-10-09T10:17:04;5.20;;;2.05;;
31347;SDS011;21711;49.708;18.568;2023-10-09T10:20:04;3.67;;;2.22;;
31347;SDS011;21711;49.708;18.568;2023-10-09T10:22:45;3.63;;;1.58;;
31347;SDS011;21711;49.708;18.568;2023-10-09T10:28:21;3.45;;;1.83;;
31347;SDS011;21711;49.708;18.568;2023-10-09T10:31:06;3.88;;;1.88;;
31347;SDS011;21711;49.708;18.568;2023-10-09T10:36:22;3.70;;;1.90;;
31347;SDS011;21711;49.708;18.568;2023-10-09T10:39:03;6.68;;;1.90;;
31347;SDS011;21711;49.708;18.568;2023-10-09T10:41:37;4.43;;;1.65;;
31347;SDS011;21711;49.708;18.568;2023-10-09T10:44:26;3.65;;;2.05;;
31347;SDS011;21711;49.708;18.568;2023-10-09T10:47:09;4.22;;;2.15;;
31347;SDS011;21711;49.708;18.568;2023-10-09T10:49:52;6.15;;;2.42;;
31347;SDS011;21711;49.708;18.568;2023-10-09T10:52:25;8.13;;;2.40;;
31347;SDS011;21711;49.708;18.568;2023-10-09T10:55:13;4.65;;;2.35;;
31347;SDS011;21711;49.708;18.568;2023-10-09T10:57:54;7.03;;;2.78;;
31347;SDS011;21711;49.708;18.568;2023-10-09T11:00:37;5.78;;;2.75;;
31347;SDS011;21711;49.708;18.568;2023-10-09T11:03:23;7.90;;;3.42;;
31347;SDS011;21711;49.708;18.568;2023-10-09T11:06:11;8.68;;;4.03;;
31347;SDS011;21711;49.708;18.568;2023-10-09T11:11:23;11.02;;;5.35;;
31347;SDS011;21711;49.708;18.568;2023-10-09T11:14:10;10.82;;;6.00;;
31347;SDS011;21711;49.708;18.568;2023-10-09T11:16:42;11.05;;;5.63;;
31347;SDS011;21711;49.708;18.568;2023-10-09T11:19:14;11.88;;;5.50;;
31347;SDS011;21711;49.708;18.568;2023-10-09T11:21:54;11.93;;;5.78;;
31347;SDS011;21711;49.708;18.568;2023-10-09T11:24:34;11.15;;;6.78;;
31347;SDS011;21711;49.708;18.568;2023-10-09T11:27:02;12.52;;;6.90;;
31347;SDS011;21711;49.708;18.568;2023-10-09T11:29:33;12.00;;;7.07;;
31347;SDS011;21711;49.708;18.568;2023-10-09T11:32:14;11.02;;;6.50;;
31347;SDS011;21711;49.708;18.568;2023-10-09T11:34:51;9.65;;;4.95;;
31347;SDS011;21711;49.708;18.568;2023-10-09T11:37:55;10.30;;;5.38;;
31347;SDS011;21711;49.708;18.568;2023-10-09T11:40:33;13.02;;;5.75;;
31347;SDS011;21711;49.708;18.568;2023-10-09T11:43:18;10.55;;;5.05;;
31347;SDS011;21711;49.708;18.568;2023-10-09T11:46:12;9.23;;;5.00;;
31347;SDS011;21711;49.708;18.568;2023-10-09T11:49:04;16.55;;;6.75;;
31347;SDS011;21711;49.708;18.568;2023-10-09T11:51:47;13.45;;;7.40;;
31347;SDS011;21711;49.708;18.568;2023-10-09T11:54:50;17.83;;;8.70;;
31347;SDS011;21711;49.708;18.568;2023-10-09T11:57:17;15.15;;;6.40;;
31347;SDS011;21711;49.708;18.568;2023-10-09T11:59:44;14.88;;;8.07;;
31347;SDS011;21711;49.708;18.568;2023-10-09T12:02:18;16.63;;;7.65;;
31347;SDS011;21711;49.708;18.568;2023-10-09T12:04:47;13.23;;;7.72;;
31347;SDS011;21711;49.708;18.568;2023-10-09T12:07:15;15.05;;;8.85;;
31347;SDS011;21711;49.708;18.568;2023-10-09T12:09:46;19.42;;;9.55;;
31347;SDS011;21711;49.708;18.568;2023-10-09T12:12:15;14.95;;;8.73;;
31347;SDS011;21711;49.708;18.568;2023-10-09T12:14:42;19.30;;;8.73;;
31347;SDS011;21711;49.708;18.568;2023-10-09T12:17:10;22.52;;;9.77;;
31347;SDS011;21711;49.708;18.568;2023-10-09T12:19:38;16.50;;;9.82;;
31347;SDS011;21711;49.708;18.568;2023-10-09T12:22:07;19.38;;;8.88;;
31347;SDS011;21711;49.708;18.568;2023-10-09T12:24:37;17.52;;;8.90;;
31347;SDS011;21711;49.708;18.568;2023-10-09T12:27:04;15.85;;;9.20;;
31347;SDS011;21711;49.708;18.568;2023-10-09T12:29:37;14.85;;;8.00;;
31347;SDS011;21711;49.708;18.568;2023-10-09T12:32:15;14.27;;;7.80;;
31347;SDS011;21711;49.708;18.568;2023-10-09T12:34:46;13.45;;;7.45;;
31347;SDS011;21711;49.708;18.568;2023-10-09T12:37:17;8.05;;;4.07;;
31347;SDS011;21711;49.708;18.568;2023-10-09T12:39:47;8.07;;;3.28;;
31347;SDS011;21711;49.708;18.568;2023-10-09T12:42:15;8.82;;;4.13;;
31347;SDS011;21711;49.708;18.568;2023-10-09T12:44:43;5.80;;;3.13;;
31347;SDS011;21711;49.708;18.568;2023-10-09T12:47:11;7.20;;;3.28;;
31347;SDS011;21711;49.708;18.568;2023-10-09T12:49:38;7.90;;;3.03;;
31347;SDS011;21711;49.708;18.568;2023-10-09T12:52:10;6.00;;;3.20;;
31347;SDS011;21711;49.708;18.568;2023-10-09T12:54:42;5.78;;;3.50;;
31347;SDS011;21711;49.708;18.568;2023-10-09T12:57:13;4.00;;;2.80;;
31347;SDS011;21711;49.708;18.568;2023-10-09T12:59:41;5.57;;;3.15;;
31347;SDS011;21711;49.708;18.568;2023-10-09T13:02:15;5.28;;;2.88;;
31347;SDS011;21711;49.708;18.568;2023-10-09T13:04:56;6.68;;;3.35;;
31347;SDS011;21711;49.708;18.568;2023-10-09T13:07:26;6.20;;;3.40;;
31347;SDS011;21711;49.708;18.568;2023-10-09T13:09:53;6.65;;;3.75;;
31347;SDS011;21711;49.708;18.568;2023-10-09T13:12:38;6.80;;;3.35;;
31347;SDS011;21711;49.708;18.568;2023-10-09T13:15:11;7.78;;;2.85;;
31347;SDS011;21711;49.708;18.568;2023-10-09T13:17:40;5.88;;;3.55;;
31347;SDS011;21711;49.708;18.568;2023-10-09T13:20:08;6.35;;;3.75;;
31347;SDS011;21711;49.708;18.568;2023-10-09T13:22:43;7.65;;;3.63;;
31347;SDS011;21711;49.708;18.568;2023-10-09T13:25:15;5.78;;;3.05;;
31347;SDS011;21711;49.708;18.568;2023-10-09T13:28:00;8.50;;;3.65;;
31347;SDS011;21711;49.708;18.568;2023-10-09T13:30:31;6.13;;;3.42;;
31347;SDS011;21711;49.708;18.568;2023-10-09T13:33:07;6.57;;;3.33;;
31347;SDS011;21711;49.708;18.568;2023-10-09T13:35:35;5.75;;;3.20;;
31347;SDS011;21711;49.708;18.568;2023-10-09T13:38:14;8.35;;;3.97;;
31347;SDS011;21711;49.708;18.568;2023-10-09T13:40:43;6.80;;;3.85;;
31347;SDS011;21711;49.708;18.568;2023-10-09T13:43:10;7.72;;;3.88;;
31347;SDS011;21711;49.708;18.568;2023-10-09T13:45:43;7.18;;;3.67;;
31347;SDS011;21711;49.708;18.568;2023-10-09T13:48:16;6.63;;;3.88;;
31347;SDS011;21711;49.708;18.568;2023-10-09T13:50:44;8.82;;;3.75;;
31347;SDS011;21711;49.708;18.568;2023-10-09T13:53:12;5.05;;;3.17;;
31347;SDS011;21711;49.708;18.568;2023-10-09T13:55:41;5.88;;;3.30;;
31347;SDS011;21711;49.708;18.568;2023-10-09T13:58:11;13.80;;;7.03;;
31347;SDS011;21711;49.708;18.568;2023-10-09T14:00:41;13.00;;;7.10;;
31347;SDS011;21711;49.708;18.568;2023-10-09T14:03:12;13.85;;;6.78;;
31347;SDS011;21711;49.708;18.568;2023-10-09T14:05:40;9.45;;;4.53;;
31347;SDS011;21711;49.708;18.568;2023-10-09T14:08:27;7.70;;;4.03;;
31347;SDS011;21711;49.708;18.568;2023-10-09T14:10:55;8.18;;;4.35;;
31347;SDS011;21711;49.708;18.568;2023-10-09T14:13:23;7.22;;;4.10;;
31347;SDS011;21711;49.708;18.568;2023-10-09T14:15:56;7.85;;;4.07;;
31347;SDS011;21711;49.708;18.568;2023-10-09T14:18:26;8.98;;;4.72;;
31347;SDS011;21711;49.708;18.568;2023-10-09T14:21:00;9.13;;;4.28;;
31347;SDS011;21711;49.708;18.568;2023-10-09T14:23:32;9.07;;;4.90;;
31347;SDS011;21711;49.708;18.568;2023-10-09T14:26:01;8.15;;;4.15;;
31347;SDS011;21711;49.708;18.568;2023-10-09T14:28:29;10.25;;;5.50;;
31347;SDS011;21711;49.708;18.568;2023-10-09T14:30:56;8.32;;;4.30;;
31347;SDS011;21711;49.708;18.568;2023-10-09T14:33:27;9.07;;;4.45;;
31347;SDS011;21711;49.708;18.568;2023-10-09T14:36:02;7.57;;;4.65;;
31347;SDS011;21711;49.708;18.568;2023-10-09T14:38:33;7.97;;;4.60;;
31347;SDS011;21711;49.708;18.568;2023-10-09T14:41:06;6.80;;;4.28;;
31347;SDS011;21711;49.708;18.568;2023-10-09T14:43:39;8.65;;;4.90;;
31347;SDS011;21711;49.708;18.568;2023-10-09T14:46:12;9.18;;;4.60;;
31347;SDS011;21711;49.708;18.568;2023-10-09T14:48:40;11.73;;;4.90;;
31347;SDS011;21711;49.708;18.568;2023-10-09T14:51:13;12.35;;;5.63;;
31347;SDS011;21711;49.708;18.568;2023-10-09T14:53:40;10.18;;;5.53;;
31347;SDS011;21711;49.708;18.568;2023-10-09T14:56:08;8.60;;;5.45;;
31347;SDS011;21711;49.708;18.568;2023-10-09T14:58:36;8.68;;;4.72;;
31347;SDS011;21711;49.708;18.568;2023-10-09T15:01:12;11.48;;;5.47;;
31347;SDS011;21711;49.708;18.568;2023-10-09T15:03:42;9.98;;;5.50;;
31347;SDS011;21711;49.708;18.568;2023-10-09T15:06:09;8.50;;;5.38;;
31347;SDS011;21711;49.708;18.568;2023-10-09T15:08:38;12.45;;;5.30;;
31347;SDS011;21711;49.708;18.568;2023-10-09T15:11:06;7.72;;;4.95;;
31347;SDS011;21711;49.708;18.568;2023-10-09T15:13:34;10.82;;;5.30;;
31347;SDS011;21711;49.708;18.568;2023-10-09T15:16:01;8.52;;;5.25;;
31347;SDS011;21711;49.708;18.568;2023-10-09T15:18:30;9.45;;;5.20;;
31347;SDS011;21711;49.708;18.568;2023-10-09T15:21:04;8.88;;;4.97;;
31347;SDS011;21711;49.708;18.568;2023-10-09T15:23:32;10.98;;;6.10;;
31347;SDS011;21711;49.708;18.568;2023-10-09T15:26:00;8.13;;;4.95;;
31347;SDS011;21711;49.708;18.568;2023-10-09T15:28:28;10.32;;;5.75;;
31347;SDS011;21711;49.708;18.568;2023-10-09T15:30:59;9.80;;;5.82;;
31347;SDS011;21711;49.708;18.568;2023-10-09T15:33:26;8.73;;;4.78;;
31347;SDS011;21711;49.708;18.568;2023-10-09T15:36:08;12.68;;;5.90;;
31347;SDS011;21711;49.708;18.568;2023-10-09T15:38:38;13.68;;;6.60;;
31347;SDS011;21711;49.708;18.568;2023-10-09T15:41:06;10.07;;;6.18;;
31347;SDS011;21711;49.708;18.568;2023-10-09T15:43:34;68.57;;;27.15;;